Nearby METAR Reports

 

KSJC - San Jose, California, USA
Distance from station: NE 9mi, 14km
Updated: Sun, 17-Jun-2018 11:53pm MDT
Few Clouds
Few Clouds
 Wind from NW
Wind: NW 7 mph , 11 km/h
Temperature: 63°F , 17°C
Dew Point: 54°F , 12°C
Humidity: 73%
Barometer: 30.00 inHg , 1015.9 hPa
Clouds: Few Clouds
Visibility: 10 miles , 16 km
Cloud details: Few Clouds 4400 ft
2018/06/18 05:53 KSJC 180553Z 32006KT 10SM FEW044 17/12 A3000 RMK AO2 SLP158 T01670122 10244 20167 53026
KNUQ - Moffett Nas/Mtn, California, USA
Distance from station: N 9mi, 14km
Updated: Sun, 17-Jun-2018 10:56pm MDT
Clear
Clear
 Wind from NNW
Wind: NNW 8 mph , 13 km/h
Temperature: 63°F , 17°C
Dew Point: 54°F , 12°C
Humidity: 73%
Barometer: 29.98 inHg , 1015.2 hPa
Clouds: Clear
Visibility: 10 miles , 16 km
2018/06/18 04:56 KNUQ 180456Z 34007KT 10SM CLR 17/12 A2998 RMK AO2 SLP154 T01720122
 
KPAO - Palo Alto, California, USA
Distance from station: NNW 14mi, 23km
Updated: Sun, 17-Jun-2018 9:47pm MDT
NOT Current
Clear
Clear
 Wind from NW
Wind: NW 12 mph , 19 km/h
Temperature: 64°F , 18°C
Dew Point: 54°F , 12°C
Humidity: 68%
Barometer: 29.95 inHg , 1014.2 hPa
Clouds: Clear
Visibility: 10 miles , 16 km
2018/06/18 03:47 KPAO 180347Z 32010KT 10SM SKC 18/12 A2995 RMK LAST
KRHV - San Jose/Reid, California, USA
Distance from station: ENE 12mi, 19km
Updated: Sun, 17-Jun-2018 10:47pm MDT
Clear
Clear
 Wind from NW
Wind: NW 8 mph , 13 km/h
Temperature: 64°F , 18°C
Dew Point: 54°F , 12°C
Humidity: 68%
Barometer: 29.95 inHg , 1014.2 hPa
Clouds: Clear
Visibility: 10 miles , 16 km
2018/06/18 04:47 KRHV 180447Z 32007KT 10SM SKC 18/12 A2995
 
KOAK - Oakland, California, USA
Distance from station: NNW 31mi, 50km
Updated: Sun, 17-Jun-2018 11:53pm MDT
Few Clouds
Few Clouds
 Wind from WNW
Wind: WNW 12 mph , 19 km/h
Temperature: 57°F , 14°C
Dew Point: 55°F , 13°C
Humidity: 94%
Barometer: 30.00 inHg , 1015.9 hPa
Clouds: Few Clouds
Visibility: 10 miles , 16 km
Cloud details: Few Clouds 1000 ft
2018/06/18 05:53 KOAK 180553Z 29010KT 10SM FEW010 14/13 A3000 RMK AO2 SLP160 T01440128 10206 20144 51019
KSQL - San Carlos Airpo, California, USA
Distance from station: NW 21mi, 34km
Updated: Sun, 17-Jun-2018 11:40pm MDT
Clear
Clear
 Wind from WSW
Wind: WSW 6 mph , 9 km/h
Temperature: 59°F , 15°C
Dew Point: 52°F , 11°C
Humidity: 77%
Barometer: 29.99 inHg , 1015.6 hPa
Clouds: Clear
Visibility: 10 miles , 16 km
2018/06/18 05:40 KSQL 180540Z AUTO 25005KT 10SM CLR 15/11 A2999 RMK AO2
 
KSFO - San Francisco, California, USA
Distance from station: NW 30mi, 49km
Updated: Sun, 17-Jun-2018 10:56pm MDT
Few Clouds
Few Clouds
 Wind from W
Wind: W 12 mph , 19 km/h
Temperature: 63°F , 17°C
Dew Point: 52°F , 11°C
Humidity: 68%
Barometer: 29.98 inHg , 1015.2 hPa
Clouds: Few Clouds
Visibility: 10 miles , 16 km
Cloud details: Few Clouds 800 ft
2018/06/18 04:56 KSFO 180456Z 28010KT 10SM FEW008 17/11 A2998 RMK AO2 SLP151 T01670106
KE16 - San Martin, California, USA
Distance from station: ESE 27mi, 43km
Updated: Sun, 17-Jun-2018 11:35pm MDT
Clear
Clear
 Wind from S
Wind: S 8 mph , 13 km/h
Temperature: 57°F , 14°C
Dew Point: 50°F , 10°C
Humidity: 77%
Barometer: 30.02 inHg , 1016.6 hPa
Clouds: Clear
Visibility: 10 miles , 16 km
2018/06/18 05:35 KE16 180535Z AUTO 17007KT 10SM CLR 14/10 A3002 RMK AO2
 
KWVI - Watsonville, California, USA
Distance from station: SSE 27mi, 44km
Updated: Sun, 17-Jun-2018 11:53pm MDT
Mist, Overcast
Mist, Overcast
 Wind from WSW
Wind: WSW 3 mph , 6 km/h
Temperature: 57°F , 14°C
Dew Point: 54°F , 12°C
Humidity: 88%
Barometer: 30.03 inHg , 1016.9 hPa
Summary: Mist
Clouds: Overcast
Visibility: 6 miles , 10 km
Cloud details: Overcast 800 ft
2018/06/18 05:53 KWVI 180553Z AUTO 24003KT 6SM BR OVC008 14/12 A3003 RMK AO2 CIG 008V011 SLP169 T01390122 10183 20133 53020
KHAF - Half Moon Bay, California, USA
Distance from station: WNW 31mi, 50km
Updated: Sun, 17-Jun-2018 11:35pm MDT
Mist, Overcast
Mist, Overcast
 Wind from S
Wind: S 5 mph , 7 km/h
Temperature: 55°F , 13°C
Dew Point: 54°F , 12°C
Humidity: 94%
Barometer: 30.02 inHg , 1016.6 hPa
Summary: Mist
Clouds: Overcast
Visibility: 2 1/2 miles , 2 km
Cloud details: Overcast 300 ft
2018/06/18 05:35 KHAF 180535Z AUTO 17004KT 2 1/2SM BR OVC003 13/12 A3002 RMK AO2
 
KHWD - Hayward, California, USA
Distance from station: N 28mi, 44km
Updated: Sun, 17-Jun-2018 10:54pm MDT
Clear
Clear
 Wind from NW
Wind: NW 13 mph , 20 km/h
Temperature: 61°F , 16°C
Dew Point: 54°F , 12°C
Humidity: 77%
Barometer: 29.98 inHg , 1015.2 hPa
Clouds: Clear
Visibility: 10 miles , 16 km
2018/06/18 04:54 KHWD 180454Z AUTO 32011KT 10SM CLR 16/12 A2998 RMK AO2 SLP161 T01560117
KLVK - Livermore, California, USA
Distance from station: NNE 31mi, 51km
Updated: Sun, 17-Jun-2018 11:53pm MDT

 
Barometer: 29.98 inHg , 1015.2 hPa
2018/06/18 05:53 KLVK 180553Z AUTO A2998 RMK AO2 SLPNO 52023 PWINO